Time;durP1;ratioP1;P1;durP2;ratioP2;P2;SDS_P1;SDS_P2;PMS_P1;PMS_P2;Temp;Humidity;BMP_temperature;BMP_pressure;BME280_temperature;BME280_humidity;BME280_pressure;Samples;Min_cycle;Max_cycle;Signal;HPM_P1;HPM_P2
2021/04/02 00:00:31;;;;;;;21.58;13.82;;;12.00;53.70;;;;;;4995037;28;20022;-53
2021/04/02 00:02:57;;;;;;;23.02;13.68;;;12.00;53.70;;;;;;4983701;28;20522;-54
2021/04/02 00:05:23;;;;;;;21.05;13.85;;;12.00;53.70;;;;;;4994872;28;20101;-57
2021/04/02 00:07:49;;;;;;;21.98;12.48;;;11.90;53.70;;;;;;4994742;28;20045;-57
2021/04/02 00:10:18;;;;;;;18.17;11.40;;;11.90;53.60;;;;;;4994712;28;20058;-57
2021/04/02 00:12:45;;;;;;;15.88;11.05;;;11.80;53.50;;;;;;4989101;28;20030;-57
2021/04/02 00:15:14;;;;;;;15.55;10.75;;;11.80;53.60;;;;;;4994237;28;20041;-56
2021/04/02 00:17:40;;;;;;;18.15;12.23;;;11.70;53.90;;;;;;4994645;28;20018;-55
2021/04/02 00:20:08;;;;;;;15.68;10.98;;;11.60;53.60;;;;;;4993827;28;20025;-57
2021/04/02 00:22:34;;;;;;;15.55;10.98;;;11.60;53.80;;;;;;4988876;28;20402;-58
2021/04/02 00:25:00;;;;;;;17.45;11.80;;;11.60;54.10;;;;;;4994381;28;20053;-55
2021/04/02 00:27:25;;;;;;;17.30;11.48;;;11.50;54.00;;;;;;4994391;28;20113;-55
2021/04/02 00:29:51;;;;;;;15.48;12.43;;;11.50;53.90;;;;;;4994379;28;20033;-58
2021/04/02 00:32:17;;;;;;;17.52;11.95;;;11.50;54.10;;;;;;4990863;28;20033;-56
2021/04/02 00:34:42;;;;;;;18.50;12.77;;;11.50;54.20;;;;;;4986116;28;20034;-57
2021/04/02 00:37:08;;;;;;;17.60;12.90;;;11.50;54.00;;;;;;4993987;28;20085;-54
2021/04/02 00:39:34;;;;;;;19.30;11.93;;;11.50;54.30;;;;;;4994523;28;20018;-54
2021/04/02 00:41:59;;;;;;;16.67;11.52;;;11.40;54.10;;;;;;4994291;28;20471;-58
2021/04/02 00:44:25;;;;;;;18.85;11.73;;;11.40;54.10;;;;;;4993120;28;20033;-54
2021/04/02 00:46:51;;;;;;;21.80;12.93;;;11.30;54.10;;;;;;4994163;28;20030;-56
2021/04/02 00:49:16;;;;;;;17.17;12.77;;;11.30;54.20;;;;;;4993965;28;20430;-56
2021/04/02 00:51:42;;;;;;;19.13;13.07;;;11.30;54.30;;;;;;4993668;28;20070;-55
2021/04/02 00:54:08;;;;;;;17.25;11.68;;;11.30;54.30;;;;;;4994267;28;20073;-58
2021/04/02 00:56:34;;;;;;;20.92;13.48;;;11.30;54.40;;;;;;4993281;28;20038;-57
2021/04/02 00:58:59;;;;;;;18.75;12.73;;;11.30;54.40;;;;;;4994422;28;20414;-55
2021/04/02 01:01:25;;;;;;;19.02;12.80;;;11.20;54.30;;;;;;4994049;28;20046;-55
2021/04/02 01:03:53;;;;;;;23.75;13.77;;;11.20;54.40;;;;;;4993844;28;20072;-57
2021/04/02 01:06:27;;;;;;;20.20;12.55;;;11.20;54.50;;;;;;4993640;28;20053;-56
2021/04/02 01:08:53;;;;;;;19.13;12.63;;;11.20;54.50;;;;;;4993719;28;20106;-58
2021/04/02 01:11:21;;;;;;;19.23;13.45;;;11.20;54.50;;;;;;4994173;28;20033;-57
2021/04/02 01:13:51;;;;;;;19.58;13.23;;;11.10;54.70;;;;;;4993712;28;20061;-55
2021/04/02 01:16:20;;;;;;;19.85;13.13;;;11.10;54.50;;;;;;4993708;28;20035;-57
2021/04/02 01:19:06;;;;;;;20.60;12.82;;;11.10;54.50;;;;;;4993744;28;20048;-57
2021/04/02 01:21:49;;;;;;;17.90;11.35;;;11.00;54.50;;;;;;4996675;28;20544;-53
2021/04/02 01:24:28;;;;;;;17.50;11.68;;;11.00;54.40;;;;;;4991365;28;20018;-56
2021/04/02 01:27:12;;;;;;;16.65;11.98;;;11.00;54.50;;;;;;4993730;28;20030;-54
2021/04/02 01:29:42;;;;;;;24.30;12.25;;;10.90;54.60;;;;;;4994115;28;20414;-55
2021/04/02 01:32:10;;;;;;;18.17;11.40;;;10.90;54.60;;;;;;4993430;28;20018;-56
2021/04/02 01:34:40;;;;;;;18.83;12.98;;;10.80;54.60;;;;;;4993632;28;20027;-54
2021/04/02 01:37:23;;;;;;;16.65;11.88;;;10.80;54.70;;;;;;4993498;28;20031;-54
2021/04/02 01:39:51;;;;;;;19.40;12.30;;;10.80;54.60;;;;;;4993358;28;20061;-57
2021/04/02 01:42:20;;;;;;;25.13;13.40;;;10.80;54.70;;;;;;4993632;28;20029;-56
2021/04/02 01:44:48;;;;;;;20.98;12.93;;;10.80;54.80;;;;;;4993612;28;20490;-56
2021/04/02 01:47:15;;;;;;;17.10;12.27;;;10.70;54.70;;;;;;4993469;28;20034;-56
2021/04/02 01:49:41;;;;;;;21.52;12.25;;;10.70;54.90;;;;;;4993220;28;20389;-56
2021/04/02 01:52:09;;;;;;;19.45;13.02;;;10.70;54.90;;;;;;4993574;28;20022;-57
2021/04/02 01:54:35;;;;;;;19.90;13.35;;;10.60;54.90;;;;;;4994693;28;20026;-55
2021/04/02 01:57:04;;;;;;;21.95;12.80;;;10.60;55.00;;;;;;4997543;28;20030;-60
2021/04/02 01:59:31;;;;;;;17.77;12.35;;;10.60;55.00;;;;;;4997177;28;20018;-57
2021/04/02 02:01:58;;;;;;;17.85;12.63;;;10.50;55.00;;;;;;4996803;28;20023;-55
2021/04/02 02:04:26;;;;;;;21.02;12.00;;;10.50;55.20;;;;;;4995734;28;20038;-58
2021/04/02 02:06:53;;;;;;;18.25;11.93;;;10.50;55.30;;;;;;4997008;28;20010;-54
2021/04/02 02:09:27;;;;;;;17.48;12.50;;;10.40;55.10;;;;;;4996959;28;20022;-55
2021/04/02 02:11:57;;;;;;;15.80;11.00;;;10.40;55.30;;;;;;4996934;28;20101;-56
2021/04/02 02:14:26;;;;;;;16.42;10.45;;;10.40;55.30;;;;;;4996880;28;20034;-56
2021/04/02 02:16:54;;;;;;;15.40;11.23;;;10.30;55.20;;;;;;4996762;28;20050;-58
2021/04/02 02:19:24;;;;;;;15.25;10.55;;;10.30;55.30;;;;;;4996664;28;20026;-54
2021/04/02 02:21:53;;;;;;;15.52;10.55;;;10.20;55.20;;;;;;4995578;28;20454;-54
2021/04/02 02:24:19;;;;;;;16.27;11.02;;;10.20;55.40;;;;;;4996784;28;20089;-54
2021/04/02 02:26:45;;;;;;;15.68;10.55;;;10.20;55.60;;;;;;4996948;28;20118;-57
2021/04/02 02:29:12;;;;;;;15.00;10.90;;;10.20;55.50;;;;;;4996307;28;20101;-54
2021/04/02 02:31:40;;;;;;;17.73;11.57;;;10.20;55.60;;;;;;4996272;28;20069;-55
2021/04/02 02:34:06;;;;;;;15.15;11.30;;;10.20;55.70;;;;;;4996723;28;20400;-56
2021/04/02 02:36:33;;;;;;;19.48;12.88;;;10.20;55.70;;;;;;4996508;28;20066;-57
2021/04/02 02:38:59;;;;;;;21.48;13.15;;;10.20;55.80;;;;;;4996368;28;20034;-56
2021/04/02 02:41:27;;;;;;;17.38;12.18;;;10.20;55.70;;;;;;4996389;28;20477;-56
2021/04/02 02:43:55;;;;;;;22.92;14.70;;;10.20;55.80;;;;;;4996477;28;20474;-56
2021/04/02 02:46:21;;;;;;;21.50;12.73;;;10.10;55.60;;;;;;4996507;28;20026;-57
2021/04/02 02:48:50;;;;;;;20.33;12.90;;;10.10;56.00;;;;;;4996661;28;20022;-57
2021/04/02 02:51:17;;;;;;;17.65;12.90;;;10.00;55.60;;;;;;4995858;28;20050;-58
2021/04/02 02:53:43;;;;;;;17.75;12.40;;;10.10;55.90;;;;;;4996354;28;20022;-58
2021/04/02 02:56:11;;;;;;;20.75;12.05;;;10.00;55.90;;;;;;4996309;28;20027;-57
2021/04/02 02:58:39;;;;;;;19.25;11.88;;;10.00;55.80;;;;;;4996022;28;20015;-54
2021/04/02 03:01:07;;;;;;;17.42;11.75;;;10.00;56.00;;;;;;4995986;28;20026;-53
2021/04/02 03:03:33;;;;;;;16.85;11.15;;;10.00;55.90;;;;;;4996244;28;20480;-55
2021/04/02 03:06:00;;;;;;;17.65;12.05;;;9.90;55.90;;;;;;4995629;28;20446;-57
2021/04/02 03:08:31;;;;;;;16.48;11.77;;;9.90;56.00;;;;;;4995855;28;20030;-55
2021/04/02 03:10:59;;;;;;;16.73;11.33;;;9.90;56.20;;;;;;4995739;28;20019;-54
2021/04/02 03:13:25;;;;;;;21.15;11.90;;;9.90;56.20;;;;;;4995878;28;20030;-55
2021/04/02 03:15:57;;;;;;;18.58;12.20;;;9.90;56.10;;;;;;4995737;28;20081;-54
2021/04/02 03:18:25;;;;;;;19.30;12.13;;;9.90;56.20;;;;;;4995977;28;20022;-56
2021/04/02 03:20:52;;;;;;;19.17;12.35;;;9.90;56.30;;;;;;4991470;28;20391;-56
2021/04/02 03:23:19;;;;;;;19.08;12.02;;;9.90;56.60;;;;;;4995314;28;20114;-54
2021/04/02 03:25:49;;;;;;;17.73;12.65;;;9.80;56.50;;;;;;4994985;28;20053;-53
2021/04/02 03:28:18;;;;;;;18.35;12.15;;;9.80;56.40;;;;;;4996050;28;20084;-54
2021/04/02 03:30:45;;;;;;;18.00;12.50;;;9.90;56.70;;;;;;4995302;28;20382;-54
2021/04/02 03:33:14;;;;;;;18.13;12.43;;;9.80;56.50;;;;;;4995258;28;20031;-56
2021/04/02 03:35:41;;;;;;;17.45;12.95;;;9.90;56.60;;;;;;4994788;28;20041;-57
2021/04/02 03:38:10;;;;;;;17.33;12.38;;;9.90;56.60;;;;;;4994983;28;20470;-55
2021/04/02 03:40:36;;;;;;;19.70;12.93;;;9.90;56.60;;;;;;4995267;28;20024;-56
2021/04/02 03:43:04;;;;;;;21.13;13.90;;;10.00;56.50;;;;;;4994955;28;20378;-55
2021/04/02 03:45:32;;;;;;;23.92;14.25;;;10.00;56.50;;;;;;4995231;28;20050;-54
2021/04/02 03:48:01;;;;;;;22.55;14.05;;;10.00;56.50;;;;;;4995006;28;20034;-57
2021/04/02 03:50:32;;;;;;;19.60;13.18;;;10.10;56.50;;;;;;4994937;28;20137;-55
2021/04/02 03:53:17;;;;;;;18.97;12.33;;;10.10;56.50;;;;;;4995264;28;20114;-57
2021/04/02 03:55:45;;;;;;;19.02;13.10;;;10.10;56.50;;;;;;4994999;28;20117;-55
2021/04/02 03:58:15;;;;;;;17.50;12.32;;;10.10;56.50;;;;;;4995210;28;20022;-55
2021/04/02 04:00:46;;;;;;;21.38;13.07;;;10.20;56.50;;;;;;4995026;28;20027;-57
2021/04/02 04:03:14;;;;;;;16.35;11.50;;;10.20;56.40;;;;;;4994619;28;20033;-57
2021/04/02 04:05:40;;;;;;;16.50;11.18;;;10.30;56.40;;;;;;4994959;28;20497;-55
2021/04/02 04:08:10;;;;;;;15.10;11.50;;;10.30;56.40;;;;;;4994809;28;20455;-58
2021/04/02 04:10:36;;;;;;;17.33;12.65;;;10.40;56.50;;;;;;4994474;28;20381;-56
2021/04/02 04:13:04;;;;;;;17.77;11.30;;;10.40;56.30;;;;;;4993600;28;20030;-54
2021/04/02 04:15:30;;;;;;;14.65;11.27;;;10.50;56.50;;;;;;4994609;28;20026;-54
2021/04/02 04:17:58;;;;;;;15.55;11.88;;;10.50;56.30;;;;;;4989439;28;20017;-57
2021/04/02 04:20:26;;;;;;;17.60;11.60;;;10.50;56.10;;;;;;4994609;28;20156;-55
2021/04/02 04:22:53;;;;;;;17.17;11.10;;;10.50;56.00;;;;;;4994739;28;20501;-55
2021/04/02 04:25:24;;;;;;;17.00;11.70;;;10.50;56.20;;;;;;4994420;28;20018;-54
2021/04/02 04:27:52;;;;;;;15.90;11.43;;;10.60;56.40;;;;;;4994619;28;20033;-57
2021/04/02 04:30:19;;;;;;;17.40;11.45;;;10.50;56.10;;;;;;4994207;28;20026;-53
2021/04/02 04:32:44;;;;;;;19.10;12.65;;;10.60;56.20;;;;;;4994448;28;20430;-56
2021/04/02 04:35:13;;;;;;;22.55;13.35;;;10.60;56.20;;;;;;4994203;28;20030;-53
2021/04/02 04:37:41;;;;;;;19.70;12.35;;;10.60;56.20;;;;;;4994381;28;20422;-57
2021/04/02 04:40:09;;;;;;;19.63;12.73;;;10.70;56.20;;;;;;4992951;28;20029;-55
2021/04/02 04:42:39;;;;;;;19.15;12.63;;;10.70;56.00;;;;;;4994311;28;20064;-54
2021/04/02 04:45:07;;;;;;;21.42;12.15;;;10.70;56.10;;;;;;4981839;28;20413;-56
2021/04/02 04:47:33;;;;;;;19.23;13.07;;;10.70;56.10;;;;;;4994016;28;20041;-57
2021/04/02 04:49:59;;;;;;;18.13;13.10;;;10.70;56.40;;;;;;4993493;28;20058;-58
2021/04/02 04:52:29;;;;;;;19.67;12.27;;;10.70;56.20;;;;;;4994204;28;20378;-54
2021/04/02 04:54:56;;;;;;;18.38;12.00;;;10.70;56.20;;;;;;4992739;28;20034;-57
2021/04/02 04:57:24;;;;;;;18.65;12.35;;;10.70;56.10;;;;;;4994069;28;20120;-57
2021/04/02 04:59:51;;;;;;;18.98;12.40;;;10.70;56.30;;;;;;4993867;28;20022;-56
2021/04/02 05:02:18;;;;;;;18.77;12.00;;;10.70;56.20;;;;;;4993989;28;20046;-55
2021/04/02 05:04:45;;;;;;;16.65;11.02;;;10.70;56.40;;;;;;4994239;28;20037;-54
2021/04/02 05:07:12;;;;;;;20.83;13.20;;;10.60;56.40;;;;;;4986715;28;20014;-56
2021/04/02 05:09:41;;;;;;;17.38;11.57;;;10.60;56.50;;;;;;4993773;28;20094;-55
2021/04/02 05:12:09;;;;;;;18.45;11.57;;;10.60;56.80;;;;;;4994373;28;20026;-55
2021/04/02 05:14:37;;;;;;;18.27;11.40;;;10.50;56.80;;;;;;4990535;28;20136;-55
2021/04/02 05:17:04;;;;;;;15.80;11.35;;;10.60;56.90;;;;;;4992999;28;20027;-56
2021/04/02 05:19:33;;;;;;;16.58;11.05;;;10.60;57.00;;;;;;4998041;28;20050;-57
2021/04/02 05:21:58;;;;;;;16.83;11.75;;;10.60;57.00;;;;;;4999342;28;20037;-56
2021/04/02 05:24:24;;;;;;;20.70;12.82;;;10.60;57.00;;;;;;4987314;28;20030;-53
2021/04/02 05:26:51;;;;;;;19.05;11.65;;;10.70;57.10;;;;;;5001587;28;20034;-57
2021/04/02 05:29:16;;;;;;;21.05;11.50;;;10.70;57.20;;;;;;5002914;28;20050;-57
2021/04/02 05:31:44;;;;;;;16.45;11.25;;;10.70;57.30;;;;;;5003537;28;20068;-55
2021/04/02 05:34:09;;;;;;;22.00;11.32;;;10.70;57.50;;;;;;4989343;28;20114;-54
2021/04/02 05:36:35;;;;;;;18.58;12.02;;;10.80;57.60;;;;;;4985241;28;20062;-57
2021/04/02 05:39:01;;;;;;;17.20;10.50;;;10.80;57.50;;;;;;4987295;28;20034;-58
2021/04/02 05:41:34;;;;;;;18.48;12.18;;;10.80;57.50;;;;;;4987727;28;20689;-57
2021/04/02 05:44:02;;;;;;;17.98;11.43;;;10.90;57.60;;;;;;4988985;28;20038;-58
2021/04/02 05:46:30;;;;;;;18.83;12.05;;;10.90;57.80;;;;;;4990164;28;20117;-54
2021/04/02 05:49:02;;;;;;;18.40;12.32;;;10.90;57.60;;;;;;4983483;28;20033;-58
2021/04/02 05:51:28;;;;;;;24.50;11.75;;;11.00;57.60;;;;;;4988515;28;20046;-53
2021/04/02 05:53:56;;;;;;;16.67;11.48;;;11.10;57.80;;;;;;4991225;28;20398;-57
2021/04/02 05:56:23;;;;;;;17.42;11.15;;;11.10;57.60;;;;;;4986715;28;20364;-58
2021/04/02 05:58:50;;;;;;;16.80;11.65;;;11.10;57.60;;;;;;4983385;28;20478;-57
2021/04/02 06:01:16;;;;;;;19.88;12.15;;;11.20;57.50;;;;;;4984136;28;20025;-54
2021/04/02 06:03:42;;;;;;;22.45;12.05;;;11.20;57.60;;;;;;4988499;28;20418;-57
2021/04/02 06:06:12;;;;;;;19.20;11.98;;;11.20;57.60;;;;;;4988947;28;20034;-57
2021/04/02 06:08:39;;;;;;;25.00;15.93;;;11.30;57.60;;;;;;4984950;28;20038;-57
2021/04/02 06:11:05;;;;;;;19.38;15.32;;;11.30;57.40;;;;;;4989654;28;20126;-57
2021/04/02 06:13:31;;;;;;;22.45;15.82;;;11.30;57.50;;;;;;4982804;28;20613;-56
2021/04/02 06:15:57;;;;;;;20.70;15.18;;;11.40;57.50;;;;;;4980584;28;20165;-57
2021/04/02 06:18:24;;;;;;;20.65;13.93;;;11.30;57.40;;;;;;4986396;28;20030;-59
2021/04/02 06:20:51;;;;;;;19.67;14.40;;;11.30;57.60;;;;;;4983257;28;20040;-59
2021/04/02 06:23:18;;;;;;;18.27;13.35;;;11.30;57.60;;;;;;4977522;28;20169;-58
2021/04/02 06:25:48;;;;;;;17.83;14.13;;;11.30;57.60;;;;;;4978564;28;20083;-58
2021/04/02 06:28:21;;;;;;;21.58;13.30;;;11.30;57.70;;;;;;4977912;28;20084;-57
2021/04/02 06:31:17;;;;;;;22.77;13.60;;;11.30;57.80;;;;;;4981795;28;20035;-58
2021/04/02 06:33:44;;;;;;;20.25;12.85;;;11.30;58.00;;;;;;4979889;28;20042;-59
2021/04/02 06:36:27;;;;;;;19.70;12.77;;;11.40;58.00;;;;;;4983277;28;20536;-59
2021/04/02 06:39:06;;;;;;;19.30;12.90;;;11.50;58.00;;;;;;4987616;28;20394;-56
2021/04/02 06:41:37;;;;;;;21.95;12.85;;;11.50;58.00;;;;;;4976276;28;20038;-58
2021/04/02 06:44:04;;;;;;;20.50;13.90;;;11.60;58.00;;;;;;4978218;28;20040;-58
2021/04/02 06:46:41;;;;;;;22.25;13.27;;;11.70;57.80;;;;;;4975047;28;20565;-60
2021/04/02 06:49:13;;;;;;;21.98;12.23;;;11.70;57.70;;;;;;4979771;28;20122;-54
2021/04/02 06:51:41;;;;;;;15.23;11.90;;;11.70;57.60;;;;;;4978901;28;20052;-57
2021/04/02 06:54:07;;;;;;;28.13;12.63;;;11.80;57.60;;;;;;4979291;28;20023;-57
2021/04/02 06:56:35;;;;;;;16.58;12.00;;;11.80;57.60;;;;;;4984379;28;20164;-58
2021/04/02 06:59:01;;;;;;;19.20;12.80;;;11.90;57.70;;;;;;4978144;28;20487;-57
2021/04/02 07:01:31;;;;;;;17.85;13.05;;;12.00;57.70;;;;;;4979910;28;20145;-57
2021/04/02 07:03:58;;;;;;;22.55;13.10;;;12.00;57.60;;;;;;4981762;28;20022;-57
2021/04/02 07:06:26;;;;;;;18.95;12.32;;;12.10;57.50;;;;;;4980435;28;20085;-56
2021/04/02 07:08:52;;;;;;;20.15;13.02;;;12.20;57.40;;;;;;4980864;28;20030;-56
2021/04/02 07:11:19;;;;;;;20.38;12.70;;;12.30;57.20;;;;;;4983366;28;20058;-57
2021/04/02 07:13:53;;;;;;;22.42;13.73;;;12.40;57.40;;;;;;4981272;28;20042;-56
2021/04/02 07:16:20;;;;;;;15.18;10.88;;;12.50;57.10;;;;;;4979527;28;20113;-56
2021/04/02 07:18:46;;;;;;;21.42;11.35;;;12.50;56.80;;;;;;4984547;28;20026;-57
2021/04/02 07:21:13;;;;;;;17.27;12.15;;;12.50;56.70;;;;;;4982310;28;20030;-54
2021/04/02 07:23:40;;;;;;;19.23;11.77;;;12.50;56.60;;;;;;4980573;28;20044;-57
2021/04/02 07:26:06;;;;;;;18.05;11.30;;;12.50;56.60;;;;;;4978192;28;20034;-57
2021/04/02 07:28:32;;;;;;;22.35;12.73;;;12.50;56.50;;;;;;4977483;28;20037;-57
2021/04/02 07:30:59;;;;;;;19.08;12.32;;;12.60;56.70;;;;;;4979473;28;20209;-58
2021/04/02 07:33:27;;;;;;;19.35;12.27;;;12.70;56.70;;;;;;4975248;28;20726;-57
2021/04/02 07:35:58;;;;;;;17.55;12.80;;;12.70;56.60;;;;;;4977891;28;20035;-56
2021/04/02 07:38:32;;;;;;;18.52;11.45;;;12.90;56.70;;;;;;4977245;28;20215;-57
2021/04/02 07:41:06;;;;;;;17.67;11.02;;;12.90;56.50;;;;;;4977504;28;20030;-57
2021/04/02 07:43:32;;;;;;;18.73;10.68;;;13.00;56.40;;;;;;4974042;28;20474;-57
2021/04/02 07:46:13;;;;;;;17.55;10.98;;;13.10;56.10;;;;;;4977469;28;20513;-57
2021/04/02 07:48:39;;;;;;;21.10;12.13;;;13.20;55.70;;;;;;4975138;28;20031;-56
2021/04/02 07:51:05;;;;;;;26.48;13.52;;;13.20;55.60;;;;;;4977201;28;20065;-57
2021/04/02 07:53:30;;;;;;;17.90;10.73;;;13.20;55.60;;;;;;4971776;28;20031;-57
2021/04/02 07:56:03;;;;;;;17.92;11.88;;;13.20;55.60;;;;;;4978895;28;20065;-56
2021/04/02 07:58:33;;;;;;;19.45;11.30;;;13.20;55.40;;;;;;4970920;28;20050;-58
2021/04/02 08:01:00;;;;;;;19.15;12.43;;;13.20;55.60;;;;;;4971896;28;20081;-57
2021/04/02 08:03:33;;;;;;;17.80;12.35;;;13.20;55.50;;;;;;4970061;28;20044;-57
2021/04/02 08:06:04;;;;;;;16.65;12.10;;;13.30;55.50;;;;;;4974825;28;20030;-58
2021/04/02 08:08:50;;;;;;;;;;;13.20;55.60;;;;;;4971648;28;20033;-57
2021/04/02 08:11:44;;;;;;;20.30;11.77;;;13.20;55.70;;;;;;4972110;28;20032;-57
2021/04/02 08:14:13;;;;;;;21.70;12.82;;;13.20;55.80;;;;;;4988302;28;21159;-57
2021/04/02 08:16:55;;;;;;;22.90;13.23;;;13.30;56.10;;;;;;4973844;28;20058;-57
2021/04/02 08:19:31;;;;;;;15.65;11.10;;;13.40;55.80;;;;;;4962471;28;20112;-57
2021/04/02 08:22:04;;;;;;;20.48;10.70;;;13.50;55.70;;;;;;4972961;28;20018;-57
2021/04/02 08:24:35;;;;;;;18.38;11.18;;;13.50;55.60;;;;;;4972294;28;20034;-57
2021/04/02 08:27:02;;;;;;;17.93;11.67;;;13.60;55.40;;;;;;4968243;28;20028;-57
2021/04/02 08:29:29;;;;;;;16.55;12.13;;;13.60;55.60;;;;;;4971285;28;20287;-57
2021/04/02 08:31:58;;;;;;;14.23;11.35;;;13.70;55.30;;;;;;4975039;28;20041;-56
2021/04/02 08:34:27;;;;;;;18.42;12.30;;;13.80;55.20;;;;;;4971679;28;20033;-54
2021/04/02 08:36:56;;;;;;;15.90;11.40;;;13.80;55.30;;;;;;4975446;28;20019;-57
2021/04/02 08:39:25;;;;;;;13.07;10.50;;;13.90;55.20;;;;;;4971970;28;20057;-58
2021/04/02 08:42:12;;;;;;;14.95;11.10;;;13.90;55.20;;;;;;4976409;28;20031;-57
2021/04/02 08:44:48;;;;;;;12.82;10.43;;;13.90;55.00;;;;;;4969024;28;20413;-57
2021/04/02 08:47:18;;;;;;;18.75;12.02;;;14.00;55.10;;;;;;4972648;28;20062;-56
2021/04/02 08:49:52;;;;;;;16.40;11.95;;;14.00;55.20;;;;;;4976820;28;20402;-57
2021/04/02 08:52:20;;;;;;;16.88;12.55;;;14.10;55.20;;;;;;4976345;28;20034;-57
2021/04/02 08:54:51;;;;;;;16.30;12.13;;;14.20;55.00;;;;;;4975869;28;20044;-57
2021/04/02 08:57:16;;;;;;;17.17;11.77;;;14.30;54.70;;;;;;4974126;28;20022;-56
2021/04/02 08:59:45;;;;;;;16.60;12.15;;;14.30;54.80;;;;;;4973964;28;20041;-56
2021/04/02 09:02:13;;;;;;;17.92;11.98;;;14.40;54.50;;;;;;4969022;28;20041;-57
2021/04/02 09:04:40;;;;;;;20.58;12.50;;;14.50;54.60;;;;;;4967123;28;20109;-57
2021/04/02 09:07:06;;;;;;;16.05;11.73;;;14.50;54.50;;;;;;4973107;28;20076;-57
2021/04/02 09:09:32;;;;;;;22.80;13.10;;;14.60;54.50;;;;;;4972426;28;20036;-56
2021/04/02 09:12:06;;;;;;;19.20;12.18;;;14.70;54.70;;;;;;4974366;28;20041;-58
2021/04/02 09:14:32;;;;;;;16.45;13.07;;;14.90;54.50;;;;;;4972074;28;20285;-57
2021/04/02 09:16:58;;;;;;;19.45;12.07;;;14.90;54.60;;;;;;4974583;28;20041;-57
2021/04/02 09:19:27;;;;;;;17.27;11.48;;;15.10;54.30;;;;;;4967882;28;20035;-58
2021/04/02 09:21:55;;;;;;;18.38;12.65;;;15.20;54.10;;;;;;4965608;28;20113;-58
2021/04/02 09:24:22;;;;;;;16.70;13.02;;;15.30;54.20;;;;;;4963332;28;20027;-58
2021/04/02 09:26:49;;;;;;;17.33;12.50;;;15.30;54.10;;;;;;4962852;28;20039;-57
2021/04/02 09:29:16;;;;;;;18.13;13.23;;;15.40;53.90;;;;;;4969087;28;20443;-58
2021/04/02 09:31:43;;;;;;;19.90;12.40;;;15.50;53.80;;;;;;4971227;28;20088;-57
2021/04/02 09:34:19;;;;;;;15.35;11.60;;;15.60;53.80;;;;;;4967343;28;20041;-57
2021/04/02 09:36:49;;;;;;;16.88;10.88;;;15.60;53.30;;;;;;4970885;28;20030;-58
2021/04/02 09:39:24;;;;;;;13.50;10.18;;;15.60;53.40;;;;;;4970313;28;20115;-58
2021/04/02 09:42:01;;;;;;;14.48;10.57;;;15.60;53.30;;;;;;4973131;28;20142;-58
2021/04/02 09:44:29;;;;;;;14.63;12.15;;;15.60;52.90;;;;;;4967330;28;20050;-58
2021/04/02 09:47:06;;;;;;;16.17;12.15;;;15.60;53.30;;;;;;4979819;28;20187;-57
2021/04/02 09:49:33;;;;;;;17.27;12.13;;;15.60;53.60;;;;;;4973812;28;20046;-57
2021/04/02 09:52:00;;;;;;;14.90;11.40;;;15.60;53.40;;;;;;4975388;28;20050;-58
2021/04/02 09:54:31;;;;;;;17.13;12.38;;;15.70;53.40;;;;;;4973229;28;20034;-58
2021/04/02 09:56:59;;;;;;;15.30;10.77;;;15.80;53.40;;;;;;4976196;28;20038;-58
2021/04/02 09:59:25;;;;;;;23.05;12.82;;;15.80;53.70;;;;;;4974960;28;20034;-56
2021/04/02 10:01:51;;;;;;;17.95;12.57;;;15.80;54.00;;;;;;4976719;28;20394;-58
2021/04/02 10:04:17;;;;;;;15.95;11.88;;;15.80;54.10;;;;;;4975349;28;20038;-57
2021/04/02 10:06:44;;;;;;;17.15;12.70;;;15.90;54.90;;;;;;4971662;28;20093;-58
2021/04/02 10:09:10;;;;;;;16.60;13.18;;;15.90;55.50;;;;;;4975316;28;20030;-56
2021/04/02 10:11:38;;;;;;;19.02;14.30;;;15.90;56.10;;;;;;4974000;28;20590;-59
2021/04/02 10:14:05;;;;;;;18.52;13.23;;;15.90;56.60;;;;;;4977165;28;20558;-58
2021/04/02 10:16:31;;;;;;;16.15;12.68;;;15.90;57.40;;;;;;4975061;28;20069;-59
2021/04/02 10:18:57;;;;;;;17.13;13.85;;;15.90;56.80;;;;;;4977402;28;20027;-57
2021/04/02 10:21:24;;;;;;;16.77;13.07;;;15.90;57.00;;;;;;4977092;28;20034;-58
2021/04/02 10:23:52;;;;;;;16.48;13.00;;;15.90;57.10;;;;;;4977318;28;20041;-59
2021/04/02 10:26:19;;;;;;;17.88;14.40;;;15.80;57.50;;;;;;4979014;28;20062;-57
2021/04/02 10:28:45;;;;;;;17.45;14.38;;;15.80;57.80;;;;;;4978750;28;20412;-58
2021/04/02 10:31:12;;;;;;;19.58;13.82;;;15.80;57.90;;;;;;4984586;28;20426;-57
2021/04/02 10:33:38;;;;;;;22.48;13.95;;;15.90;57.80;;;;;;4982237;28;20038;-58
2021/04/02 10:36:05;;;;;;;19.17;14.43;;;15.80;57.50;;;;;;4980797;28;20030;-57
2021/04/02 10:38:31;;;;;;;18.70;14.07;;;15.80;57.30;;;;;;4976926;28;20482;-56
2021/04/02 10:40:57;;;;;;;16.83;13.75;;;15.90;58.00;;;;;;4984126;28;20087;-56
2021/04/02 10:43:23;;;;;;;21.50;15.45;;;15.80;58.00;;;;;;4980039;28;20034;-57
2021/04/02 10:45:50;;;;;;;20.65;14.50;;;15.80;58.40;;;;;;4975767;28;20042;-56
2021/04/02 10:48:16;;;;;;;20.15;14.75;;;15.80;58.90;;;;;;4973268;28;20084;-57
2021/04/02 10:50:44;;;;;;;22.10;15.10;;;15.70;59.30;;;;;;4974946;28;20104;-57
2021/04/02 10:53:10;;;;;;;16.58;14.18;;;15.70;59.80;;;;;;4977202;28;20132;-57
2021/04/02 10:55:36;;;;;;;20.80;14.73;;;15.60;60.00;;;;;;4978584;28;20053;-56
2021/04/02 10:58:05;;;;;;;18.45;14.00;;;15.50;60.50;;;;;;4981285;28;20687;-57
2021/04/02 11:00:31;;;;;;;21.00;15.45;;;15.50;61.10;;;;;;4979483;28;20030;-57
2021/04/02 11:02:57;;;;;;;22.90;15.30;;;15.40;61.60;;;;;;4972006;28;20081;-57
2021/04/02 11:05:22;;;;;;;20.20;15.30;;;15.40;62.00;;;;;;4978087;28;20517;-57
2021/04/02 11:07:48;;;;;;;20.70;15.88;;;15.30;62.30;;;;;;4978670;28;20121;-57
2021/04/02 11:10:14;;;;;;;20.33;16.20;;;15.30;63.20;;;;;;4980343;28;20129;-58
2021/04/02 11:12:40;;;;;;;22.65;17.30;;;15.20;63.50;;;;;;4974365;28;20027;-58
2021/04/02 11:15:08;;;;;;;21.73;15.20;;;15.20;63.80;;;;;;4973635;28;21327;-58
2021/04/02 11:17:34;;;;;;;18.58;14.48;;;15.20;64.60;;;;;;4971556;28;20022;-57
2021/04/02 11:20:00;;;;;;;21.33;15.15;;;15.10;63.40;;;;;;4973989;28;20439;-58
2021/04/02 11:22:26;;;;;;;18.85;14.48;;;15.00;63.60;;;;;;4974091;28;20487;-58
2021/04/02 11:24:52;;;;;;;23.77;16.92;;;14.90;64.30;;;;;;4966654;28;20037;-58
2021/04/02 11:27:19;;;;;;;18.70;15.02;;;14.80;64.80;;;;;;4968091;28;20027;-57
2021/04/02 11:29:45;;;;;;;21.02;16.55;;;14.70;65.70;;;;;;4969001;28;20028;-58
2021/04/02 11:32:11;;;;;;;22.70;16.70;;;14.70;66.00;;;;;;4973001;28;20141;-58
2021/04/02 11:34:38;;;;;;;21.63;16.38;;;14.60;66.00;;;;;;4977128;28;20589;-57
2021/04/02 11:37:04;;;;;;;19.40;15.00;;;14.60;65.70;;;;;;4979543;28;20078;-56
2021/04/02 11:39:30;;;;;;;19.38;15.43;;;14.40;65.60;;;;;;4975155;28;20494;-56
2021/04/02 11:41:56;;;;;;;21.77;15.13;;;14.30;65.60;;;;;;4976038;28;20027;-57
2021/04/02 11:44:22;;;;;;;20.20;16.17;;;14.20;66.00;;;;;;4978945;28;20506;-58
2021/04/02 11:46:50;;;;;;;18.52;14.32;;;14.10;66.40;;;;;;4977983;28;20068;-57
2021/04/02 11:49:16;;;;;;;18.80;14.10;;;14.10;66.40;;;;;;4976099;28;20039;-59
2021/04/02 11:51:41;;;;;;;21.85;16.42;;;14.00;66.60;;;;;;4975139;28;20058;-56
2021/04/02 11:54:07;;;;;;;21.23;15.10;;;14.00;66.80;;;;;;4977734;28;20041;-54
2021/04/02 11:56:33;;;;;;;21.48;15.48;;;13.90;67.10;;;;;;4971336;28;20026;-56
2021/04/02 11:58:58;;;;;;;18.65;14.88;;;13.80;67.60;;;;;;4968030;28;20073;-56
2021/04/02 12:01:24;;;;;;;21.60;15.10;;;13.80;67.90;;;;;;4966823;28;20061;-56
2021/04/02 12:03:50;;;;;;;19.80;15.25;;;13.70;68.30;;;;;;4969551;28;20061;-56
2021/04/02 12:06:16;;;;;;;19.15;15.57;;;13.70;68.80;;;;;;4975773;28;20084;-58
2021/04/02 12:08:42;;;;;;;22.30;16.73;;;13.60;69.20;;;;;;4977565;28;20698;-56
2021/04/02 12:11:08;;;;;;;19.83;15.68;;;13.60;69.70;;;;;;4975346;28;20118;-56
2021/04/02 12:13:34;;;;;;;21.13;15.88;;;13.60;70.30;;;;;;4973864;28;20115;-58
2021/04/02 12:16:00;;;;;;;21.73;16.50;;;13.60;70.30;;;;;;4972474;28;20480;-57
2021/04/02 12:18:26;;;;;;;19.65;16.20;;;13.50;70.30;;;;;;4977928;28;20125;-57
2021/04/02 12:20:51;;;;;;;20.58;16.30;;;13.50;70.40;;;;;;4972126;28;20117;-57
2021/04/02 12:23:17;;;;;;;22.80;16.67;;;13.40;70.60;;;;;;4971274;28;20027;-58
2021/04/02 12:25:43;;;;;;;22.63;17.13;;;13.30;70.70;;;;;;4976570;28;20043;-56
2021/04/02 12:28:09;;;;;;;24.52;18.27;;;13.30;70.90;;;;;;4971981;28;20626;-57
2021/04/02 12:30:36;;;;;;;24.30;18.30;;;13.20;71.20;;;;;;4969658;28;20046;-56
2021/04/02 12:33:01;;;;;;;22.08;16.70;;;13.20;71.60;;;;;;4976886;28;20049;-57